Time;durP1;ratioP1;P1;durP2;ratioP2;P2;SDS_P1;SDS_P2;PMS_P1;PMS_P2;Temp;Humidity;BMP_temperature;BMP_pressure;BME280_temperature;BME280_humidity;BME280_pressure;Samples;Min_cycle;Max_cycle;Signal;HPM_P1;HPM_P2
2022/05/15 00:02:44;;;;;;;30.73;3.90;;;;;;;24.70;51.61;99896.97;7315139;19;129904;-37
2022/05/15 00:05:10;;;;;;;33.85;4.18;;;;;;;24.69;51.92;99887.44;7314213;19;131154;-37
2022/05/15 00:07:35;;;;;;;15.63;2.75;;;;;;;24.71;52.19;99893.34;7312312;19;129634;-38
2022/05/15 00:10:03;;;;;;;31.75;3.72;;;;;;;24.70;51.33;99899.59;7313771;19;150503;-36
2022/05/15 00:12:29;;;;;;;15.65;2.47;;;;;;;24.67;51.36;99896.44;7315594;19;131001;-42
2022/05/15 00:14:54;;;;;;;15.77;2.07;;;;;;;24.67;51.82;99899.88;7311713;19;157919;-37
2022/05/15 00:17:19;;;;;;;20.77;2.73;;;;;;;24.67;52.02;99897.25;7311714;19;155381;-40
2022/05/15 00:19:44;;;;;;;31.87;3.43;;;;;;;24.69;52.46;99897.13;7313503;19;154171;-38
2022/05/15 00:22:10;;;;;;;39.87;4.40;;;;;;;24.68;52.14;99901.56;7313686;19;158465;-39
2022/05/15 00:24:37;;;;;;;26.30;3.30;;;;;;;24.69;52.18;99900.59;7313958;19;130540;-40
2022/05/15 00:27:03;;;;;;;53.03;5.35;;;;;;;24.68;51.55;99895.47;7313697;19;129308;-40
2022/05/15 00:29:29;;;;;;;33.97;4.13;;;;;;;24.69;52.16;99897.13;7314169;19;129843;-40
2022/05/15 00:31:55;;;;;;;23.73;3.10;;;;;;;24.67;51.70;99897.25;7316111;19;129839;-38
2022/05/15 00:34:20;;;;;;;23.87;3.20;;;;;;;24.70;51.68;99896.16;7312990;19;129305;-40
2022/05/15 00:36:45;;;;;;;21.60;2.80;;;;;;;24.70;51.58;99896.16;7310683;19;128848;-37
2022/05/15 00:39:11;;;;;;;26.90;3.80;;;;;;;24.69;52.43;99891.88;7314509;19;154533;-38
2022/05/15 00:41:37;;;;;;;34.87;3.83;;;;;;;24.67;52.34;99888.53;7314479;19;128952;-39
2022/05/15 00:44:04;;;;;;;30.77;3.80;;;;;;;24.65;52.27;99890.47;7313963;19;132665;-39
2022/05/15 00:46:32;;;;;;;26.60;2.90;;;;;;;24.70;52.30;99891.72;7311929;19;130011;-38
2022/05/15 00:49:01;;;;;;;18.33;2.63;;;;;;;24.72;52.43;99883.69;7316396;19;129662;-37
2022/05/15 00:51:37;;;;;;;10.43;1.95;;;;;;;24.70;52.61;99891.72;7315980;19;130861;-39
2022/05/15 00:54:14;;;;;;;22.88;2.92;;;;;;;24.67;52.11;99891.16;7313488;19;129508;-38
2022/05/15 00:56:44;;;;;;;9.18;1.85;;;;;;;24.66;52.48;99894.78;7311011;19;129087;-37
2022/05/15 00:59:13;;;;;;;21.02;2.72;;;;;;;24.66;52.23;99890.31;7314626;19;129069;-37
2022/05/15 01:01:39;;;;;;;28.95;3.35;;;;;;;24.67;52.15;99885.91;7314871;19;129872;-36
2022/05/15 01:04:04;;;;;;;13.10;2.07;;;;;;;24.67;52.75;99892.00;7313948;19;129250;-44
2022/05/15 01:06:30;;;;;;;21.60;2.95;;;;;;;24.69;52.23;99886.63;7311418;19;131748;-36
2022/05/15 01:08:56;;;;;;;22.00;2.83;;;;;;;24.68;52.79;99896.31;7312682;19;129065;-41
2022/05/15 01:11:23;;;;;;;27.92;3.55;;;;;;;24.68;52.25;99893.66;7313741;19;129219;-42
2022/05/15 01:13:52;;;;;;;18.00;2.28;;;;;;;24.69;51.91;99899.75;7312352;19;129674;-38
2022/05/15 01:16:21;;;;;;;25.33;3.10;;;;;;;24.64;53.07;99891.47;7310595;19;130479;-39
2022/05/15 01:18:47;;;;;;;17.67;2.33;;;;;;;24.62;51.59;99891.63;7313113;19;129831;-37
2022/05/15 01:21:28;;;;;;;37.93;4.27;;;;;;;24.69;52.75;99891.88;7314025;19;129235;-39
2022/05/15 01:23:54;;;;;;;27.85;3.00;;;;;;;24.66;52.19;99894.78;7309003;19;129712;-38
2022/05/15 01:26:21;;;;;;;24.90;2.80;;;;;;;24.69;52.21;99894.50;7309120;19;129171;-42
2022/05/15 01:28:47;;;;;;;23.40;2.45;;;;;;;24.66;52.34;99894.78;7312881;19;129041;-42
2022/05/15 01:31:13;;;;;;;31.77;3.83;;;;;;;24.67;52.33;99901.69;7311408;19;148742;-38
2022/05/15 01:33:39;;;;;;;21.33;2.85;;;;;;;24.68;52.40;99903.34;7312701;19;129649;-40
2022/05/15 01:36:06;;;;;;;31.33;3.70;;;;;;;24.65;52.42;99903.63;7308623;19;129690;-44
2022/05/15 01:38:32;;;;;;;25.83;2.83;;;;;;;24.63;51.97;99901.16;7311762;19;129123;-41
2022/05/15 01:40:57;;;;;;;35.63;3.57;;;;;;;24.66;52.57;99898.22;7310353;19;129471;-36
2022/05/15 01:43:23;;;;;;;32.33;3.38;;;;;;;24.58;52.15;99885.00;7310350;19;130730;-39
2022/05/15 01:45:48;;;;;;;31.73;3.43;;;;;;;24.66;52.83;99900.03;7308257;19;154475;-41
2022/05/15 01:48:13;;;;;;;18.80;2.57;;;;;;;24.65;51.89;99904.47;7310481;19;154877;-38
2022/05/15 01:50:38;;;;;;;31.70;3.40;;;;;;;24.65;51.87;99901.00;7312220;19;129233;-39
2022/05/15 01:53:04;;;;;;;18.53;2.23;;;;;;;24.61;52.33;99895.22;7311214;19;158956;-37
2022/05/15 01:55:29;;;;;;;35.13;4.18;;;;;;;24.63;52.80;99903.78;7310161;19;139677;-37
2022/05/15 01:57:54;;;;;;;24.23;2.83;;;;;;;24.63;52.22;99897.69;7313100;19;129017;-41
2022/05/15 02:00:23;;;;;;;26.83;3.03;;;;;;;24.58;51.60;99898.16;7310787;19;158437;-38
2022/05/15 02:02:48;;;;;;;14.73;1.90;;;;;;;24.63;52.09;99900.31;7312204;19;130926;-38
2022/05/15 02:05:14;;;;;;;35.43;4.07;;;;;;;24.62;52.32;99893.41;7311350;19;128817;-38
2022/05/15 02:07:40;;;;;;;21.33;2.70;;;;;;;24.66;51.26;99897.41;7312463;19;138986;-38
2022/05/15 02:10:07;;;;;;;30.35;3.72;;;;;;;24.65;52.18;99893.13;7311622;19;129556;-40
2022/05/15 02:12:32;;;;;;;19.52;2.53;;;;;;;24.62;52.42;99899.50;7312533;19;130894;-37
2022/05/15 02:14:57;;;;;;;30.97;3.30;;;;;;;24.61;52.53;99891.78;7309770;19;129442;-39
2022/05/15 02:17:23;;;;;;;31.03;3.57;;;;;;;24.62;52.12;99903.94;7309405;19;154139;-40
2022/05/15 02:19:49;;;;;;;13.98;2.08;;;;;;;24.52;52.54;99882.16;7312531;19;130249;-38
2022/05/15 02:22:14;;;;;;;27.27;2.95;;;;;;;24.62;52.33;99894.25;7309576;19;160333;-39
2022/05/15 02:24:39;;;;;;;21.85;2.53;;;;;;;24.62;53.11;99903.94;7311192;19;129065;-41
2022/05/15 02:27:05;;;;;;;10.33;1.80;;;;;;;24.61;52.47;99897.03;7307581;19;154370;-38
2022/05/15 02:29:31;;;;;;;26.40;3.13;;;;;;;24.62;51.71;99909.19;7312485;19;129337;-38
2022/05/15 02:31:56;;;;;;;30.87;3.40;;;;;;;24.62;52.52;99903.94;7310706;19;129547;-40
2022/05/15 02:34:21;;;;;;;26.20;3.10;;;;;;;24.56;51.89;99889.59;7310579;19;134334;-40
2022/05/15 02:36:47;;;;;;;7.55;1.58;;;;;;;24.63;52.44;99900.31;7306670;19;153955;-38
2022/05/15 02:39:12;;;;;;;24.13;2.73;;;;;;;24.63;51.60;99900.31;7310500;19;159553;-40
2022/05/15 02:41:37;;;;;;;20.53;2.33;;;;;;;24.63;52.06;99905.56;7308822;19;158309;-37
2022/05/15 02:44:03;;;;;;;19.30;2.60;;;;;;;24.61;52.24;99904.94;7309630;19;154640;-38
2022/05/15 02:46:28;;;;;;;23.20;3.05;;;;;;;24.54;52.59;99893.34;7307093;19;129333;-40
2022/05/15 02:51:37;;;;;;;27.77;3.13;;;;;;;24.58;52.04;99903.41;7310897;19;129581;-38
2022/05/15 02:54:02;;;;;;;18.80;2.50;;;;;;;24.61;52.24;99910.19;7308915;19;154722;-40
2022/05/15 02:56:31;;;;;;;24.20;2.80;;;;;;;24.64;52.78;99909.88;7306762;19;128995;-38
2022/05/15 02:58:56;;;;;;;5.05;1.35;;;;;;;24.63;53.23;99916.09;7310042;19;129436;-40
2022/05/15 03:01:23;;;;;;;25.53;3.17;;;;;;;24.62;52.17;99906.56;7309525;19;129168;-38
2022/05/15 03:03:48;;;;;;;17.98;2.28;;;;;;;24.60;52.32;99896.22;7311687;19;129722;-37
2022/05/15 03:06:15;;;;;;;24.33;2.77;;;;;;;24.59;52.07;99904.25;7308309;19;129111;-39
2022/05/15 03:08:44;;;;;;;25.15;3.10;;;;;;;24.60;53.04;99905.88;7310081;19;129425;-41
2022/05/15 03:11:10;;;;;;;21.35;2.58;;;;;;;24.59;52.89;99906.88;7311035;19;130390;-38
2022/05/15 03:13:36;;;;;;;26.47;3.13;;;;;;;24.59;52.16;99910.34;7310178;19;128949;-38
2022/05/15 03:16:02;;;;;;;24.77;2.77;;;;;;;24.52;52.33;99897.94;7306562;19;129082;-41
2022/05/15 03:18:28;;;;;;;23.83;2.75;;;;;;;24.59;51.67;99920.03;7310599;19;129164;-39
2022/05/15 03:20:53;;;;;;;16.17;2.10;;;;;;;24.50;52.15;99903.34;7309130;19;146484;-38
2022/05/15 03:23:18;;;;;;;18.87;2.57;;;;;;;24.56;52.03;99918.50;7309901;19;154577;-37
2022/05/15 03:25:43;;;;;;;34.83;3.90;;;;;;;24.59;52.44;99917.41;7306269;19;154475;-40
2022/05/15 03:28:10;;;;;;;23.33;2.75;;;;;;;24.58;52.08;99923.63;7309159;19;158393;-37
2022/05/15 03:30:40;;;;;;;31.95;3.65;;;;;;;24.60;53.16;99921.66;7309588;19;129348;-37
2022/05/15 03:33:08;;;;;;;19.73;2.60;;;;;;;24.59;52.88;99920.03;7309981;19;129201;-40
2022/05/15 03:35:34;;;;;;;35.92;4.07;;;;;;;24.58;52.65;99915.75;7306290;19;129343;-37
2022/05/15 03:37:59;;;;;;;29.63;3.40;;;;;;;24.58;52.99;99913.13;7309135;19;130131;-37
2022/05/15 03:40:24;;;;;;;19.13;2.30;;;;;;;24.58;52.77;99921.00;7308651;19;129671;-36
2022/05/15 03:42:50;;;;;;;15.83;2.23;;;;;;;24.57;51.91;99927.22;7308381;19;153718;-39
2022/05/15 03:45:15;;;;;;;27.77;3.22;;;;;;;24.56;52.67;99922.97;7307017;19;154356;-38
2022/05/15 03:47:45;;;;;;;25.92;2.83;;;;;;;24.58;52.93;99928.91;7306766;19;159005;-39
2022/05/15 03:50:12;;;;;;;26.63;2.95;;;;;;;24.56;52.95;99926.38;7310168;19;130319;-37
2022/05/15 03:52:37;;;;;;;32.03;3.43;;;;;;;24.55;52.65;99924.75;7310000;19;129184;-36
2022/05/15 03:55:03;;;;;;;24.20;2.90;;;;;;;24.59;52.59;99930.53;7305658;19;154223;-40
2022/05/15 03:57:28;;;;;;;22.50;2.78;;;;;;;24.56;52.84;99930.84;7307051;19;130189;-40
2022/05/15 03:59:53;;;;;;;9.40;1.47;;;;;;;24.54;52.82;99935.41;7309381;19;130412;-38
2022/05/15 04:02:19;;;;;;;33.57;3.57;;;;;;;24.56;53.06;99936.09;7308017;19;129019;-41
2022/05/15 04:04:44;;;;;;;26.97;3.10;;;;;;;24.57;52.82;99938.56;7314451;19;153648;-38
2022/05/15 04:07:09;;;;;;;29.43;3.50;;;;;;;24.59;51.92;99941.06;7312633;19;138246;-37
2022/05/15 04:09:36;;;;;;;29.85;3.17;;;;;;;24.58;52.67;99939.41;7313737;19;158258;-38
2022/05/15 04:12:01;;;;;;;15.13;2.38;;;;;;;24.56;51.91;99934.28;7314728;19;129008;-38
2022/05/15 04:14:26;;;;;;;25.73;2.83;;;;;;;24.48;51.88;99924.53;7315179;19;130158;-38
2022/05/15 04:16:52;;;;;;;22.93;2.70;;;;;;;24.56;53.00;99942.16;7310147;19;129518;-38
2022/05/15 04:19:17;;;;;;;29.13;3.47;;;;;;;24.56;52.77;99941.34;7313873;19;159190;-37
2022/05/15 04:21:45;;;;;;;22.70;2.83;;;;;;;24.56;52.08;99941.34;7311456;19;129208;-38
2022/05/15 04:24:13;;;;;;;34.53;3.37;;;;;;;24.55;52.79;99934.44;7314640;19;129331;-37
2022/05/15 04:26:41;;;;;;;29.10;3.28;;;;;;;24.48;52.73;99935.03;7311206;19;129630;-38
2022/05/15 04:29:07;;;;;;;20.23;2.45;;;;;;;24.53;52.82;99947.72;7315056;19;130997;-37
2022/05/15 04:31:34;;;;;;;26.13;3.33;;;;;;;24.55;52.83;99950.19;7312544;19;129532;-38
2022/05/15 04:34:00;;;;;;;20.75;2.33;;;;;;;24.48;52.88;99939.47;7315051;19;129552;-37
2022/05/15 04:36:25;;;;;;;19.47;2.40;;;;;;;24.56;52.53;99957.13;7310106;19;129671;-37
2022/05/15 04:38:50;;;;;;;19.75;2.45;;;;;;;24.55;52.74;99950.19;7315601;19;129730;-38
2022/05/15 04:41:15;;;;;;;27.50;3.17;;;;;;;24.54;52.26;99948.56;7313574;19;153737;-38
2022/05/15 04:43:41;;;;;;;18.92;2.40;;;;;;;24.56;52.02;99957.13;7312858;19;154073;-38
2022/05/15 04:46:07;;;;;;;31.13;3.30;;;;;;;24.53;52.16;99952.19;7311351;19;158257;-38
2022/05/15 04:48:33;;;;;;;20.92;2.47;;;;;;;24.53;52.23;99960.88;7314310;19;130317;-38
2022/05/15 04:50:59;;;;;;;24.38;3.03;;;;;;;24.54;52.38;99961.72;7315412;19;129143;-38
2022/05/15 04:53:25;;;;;;;10.47;1.50;;;;;;;24.53;52.48;99960.06;7313706;19;129748;-37
2022/05/15 04:55:50;;;;;;;18.38;2.85;;;;;;;24.51;52.42;99960.19;7311473;19;130219;-37
2022/05/15 04:58:15;;;;;;;13.40;2.17;;;;;;;24.53;52.03;99962.69;7311860;19;159798;-38
2022/05/15 05:00:43;;;;;;;20.88;2.53;;;;;;;24.51;53.29;99959.38;7312081;19;155087;-37
2022/05/15 05:03:08;;;;;;;27.92;3.47;;;;;;;24.51;52.66;99969.91;7314405;19;129041;-39
2022/05/15 05:05:33;;;;;;;17.53;2.57;;;;;;;24.53;52.45;99970.59;7311230;19;129888;-40
2022/05/15 05:07:59;;;;;;;29.95;3.28;;;;;;;24.50;52.59;99974.31;7312836;19;146672;-39
2022/05/15 05:10:24;;;;;;;20.53;2.57;;;;;;;24.50;52.92;99974.31;7310294;19;154351;-39
2022/05/15 05:12:49;;;;;;;16.67;2.28;;;;;;;24.51;52.76;99970.69;7314736;19;130317;-40
2022/05/15 05:15:15;;;;;;;31.50;3.40;;;;;;;24.51;52.84;99973.34;7308393;19;130630;-38
2022/05/15 05:17:41;;;;;;;20.97;2.50;;;;;;;24.51;52.50;99975.97;7313379;19;130319;-38
2022/05/15 05:20:08;;;;;;;25.33;2.90;;;;;;;24.51;53.23;99975.16;7314945;19;129437;-40
2022/05/15 05:22:33;;;;;;;12.40;2.00;;;;;;;24.53;52.84;99973.22;7312165;19;129196;-40
2022/05/15 05:24:58;;;;;;;28.80;3.43;;;;;;;24.53;52.59;99986.34;7310851;19;159157;-41
2022/05/15 05:27:24;;;;;;;22.50;2.40;;;;;;;24.51;52.09;99986.47;7310261;19;139496;-37
2022/05/15 05:29:50;;;;;;;17.77;2.10;;;;;;;24.53;52.90;99988.97;7314363;19;129487;-42
2022/05/15 05:32:15;;;;;;;38.92;3.67;;;;;;;24.52;53.19;99989.94;7311850;19;130337;-35
2022/05/15 05:34:40;;;;;;;17.43;2.23;;;;;;;24.48;52.55;99990.25;7310878;19;148762;-42
2022/05/15 05:37:06;;;;;;;30.90;3.37;;;;;;;24.51;52.50;99996.19;7312431;19;130385;-40
2022/05/15 05:39:31;;;;;;;28.33;3.53;;;;;;;24.51;52.88;99990.94;7312126;19;129483;-40
2022/05/15 05:41:57;;;;;;;18.33;2.20;;;;;;;24.52;52.20;99997.81;7312896;19;129674;-40
2022/05/15 05:44:24;;;;;;;16.37;1.93;;;;;;;24.53;53.02;99999.50;7311530;19;130375;-39
2022/05/15 05:46:49;;;;;;;;;;;;;;;24.60;52.68;99990.00;7309615;19;129576;-41
2022/05/15 05:49:14;;;;;;;28.73;2.97;;;;;;;24.52;52.91;100003.91;7309497;19;154647;-39
2022/05/15 05:51:39;;;;;;;18.85;2.30;;;;;;;24.49;52.81;99994.50;7312170;19;154144;-41
2022/05/15 05:54:04;;;;;;;38.10;3.93;;;;;;;24.52;52.84;100000.44;7309786;19;161621;-40
2022/05/15 05:56:30;;;;;;;27.53;3.40;;;;;;;24.51;52.85;99998.81;7307533;19;129777;-38
2022/05/15 05:58:55;;;;;;;13.73;1.98;;;;;;;24.48;52.09;99995.50;7312938;19;129023;-40
2022/05/15 06:01:20;;;;;;;20.53;2.43;;;;;;;24.39;52.48;99988.50;7314007;19;128957;-40
2022/05/15 06:06:30;;;;;;;22.52;2.47;;;;;;;24.51;52.22;100018.00;7306895;19;129453;-38
2022/05/15 06:08:55;;;;;;;22.50;2.60;;;;;;;24.48;52.12;100003.38;7309472;19;155525;-40
2022/05/15 06:11:20;;;;;;;25.80;2.83;;;;;;;24.47;52.61;100006.16;7307427;19;154107;-38
2022/05/15 06:13:46;;;;;;;16.80;2.10;;;;;;;24.44;53.19;99998.59;7309305;19;157459;-39
2022/05/15 06:16:13;;;;;;;35.17;3.87;;;;;;;24.48;52.80;100004.38;7305365;19;157878;-41
2022/05/15 06:18:39;;;;;;;21.77;2.63;;;;;;;24.45;53.04;100008.94;7309336;19;130044;-41
2022/05/15 06:21:04;;;;;;;29.98;2.88;;;;;;;24.48;53.01;100009.63;7311269;19;129357;-37
2022/05/15 06:23:30;;;;;;;28.10;3.43;;;;;;;24.48;52.98;100007.00;7308590;19;133877;-40
2022/05/15 06:25:55;;;;;;;26.97;3.07;;;;;;;24.48;52.63;100013.06;7305465;19;158983;-39
2022/05/15 06:28:20;;;;;;;34.27;3.57;;;;;;;24.48;52.59;100014.88;7309019;19;128963;-40
2022/05/15 06:30:45;;;;;;;25.65;3.00;;;;;;;24.42;52.68;100014.50;7309325;19;129181;-40
2022/05/15 06:33:11;;;;;;;42.28;4.60;;;;;;;24.38;53.06;100013.13;7307096;19;158716;-40
2022/05/15 06:35:36;;;;;;;48.40;5.40;;;;;;;24.28;52.99;99999.22;7307548;19;139496;-40
2022/05/15 06:38:03;;;;;;;27.37;4.13;;;;;;;24.35;53.24;100008.16;7309836;19;130136;-39
2022/05/15 06:40:29;;;;;;;23.92;3.58;;;;;;;24.37;52.73;100010.66;7311252;19;129242;-41
2022/05/15 06:42:54;;;;;;;23.07;3.20;;;;;;;24.29;52.49;99998.25;7311151;19;130527;-40
2022/05/15 06:45:19;;;;;;;48.00;6.20;;;;;;;24.36;52.26;100015.06;7306714;19;158623;-41
2022/05/15 06:47:45;;;;;;;25.50;4.10;;;;;;;24.35;51.55;100013.44;7307196;19;154453;-41
2022/05/15 06:50:11;;;;;;;35.60;4.77;;;;;;;24.35;51.93;100016.06;7308528;19;153485;-40
2022/05/15 06:52:37;;;;;;;30.37;4.50;;;;;;;24.28;51.72;99995.75;7310426;19;130488;-40
2022/05/15 06:55:06;;;;;;;93.05;10.93;;;;;;;24.41;51.97;100015.47;7289735;19;131178;-39
2022/05/15 06:57:33;;;;;;;28.40;4.40;;;;;;;24.41;51.36;100014.66;7301580;19;131294;-41
2022/05/15 07:00:01;;;;;;;44.88;5.95;;;;;;;24.43;50.75;100013.50;7307316;19;129816;-39
2022/05/15 07:02:28;;;;;;;31.45;4.68;;;;;;;24.44;50.99;100016.97;7306502;19;130161;-38
2022/05/15 07:04:53;;;;;;;45.38;5.93;;;;;;;24.46;50.62;100012.41;7309986;19;130454;-39
2022/05/15 07:07:19;;;;;;;25.47;4.03;;;;;;;24.46;50.27;100010.59;7307319;19;129220;-40
2022/05/15 07:09:45;;;;;;;37.60;5.83;;;;;;;24.46;50.69;100017.66;7307987;19;129961;-39
2022/05/15 07:12:10;;;;;;;28.77;4.60;;;;;;;24.42;49.97;100016.28;7307853;19;160367;-40
2022/05/15 07:14:36;;;;;;;38.37;5.00;;;;;;;24.36;49.95;100003.75;7307394;19;129803;-37
2022/05/15 07:17:01;;;;;;;32.30;4.03;;;;;;;24.46;50.04;100018.47;7307679;19;128934;-39
2022/05/15 07:19:26;;;;;;;44.70;5.53;;;;;;;24.45;50.10;100019.47;7308382;19;134301;-39
2022/05/15 07:21:51;;;;;;;106.15;11.55;;;;;;;24.44;47.92;100016.97;7299749;19;150003;-38
2022/05/15 07:24:17;;;;;;;36.20;4.97;;;;;;;24.43;49.55;100016.13;7300131;19;160817;-38
2022/05/15 07:26:45;;;;;;;35.30;4.77;;;;;;;24.43;48.94;100021.41;7300882;19;154535;-40
2022/05/15 07:29:13;;;;;;;46.08;5.82;;;;;;;24.45;49.07;100018.63;7309837;19;132690;-39
2022/05/15 07:31:39;;;;;;;29.48;3.97;;;;;;;24.42;48.53;100013.66;7307947;19;129607;-41
2022/05/15 07:34:05;;;;;;;31.60;4.35;;;;;;;24.45;48.62;100019.47;7310028;19;129576;-36
2022/05/15 07:36:30;;;;;;;44.50;5.03;;;;;;;24.48;47.45;100016.53;7302178;19;129422;-40
2022/05/15 07:38:55;;;;;;;28.60;4.10;;;;;;;24.53;47.27;100010.81;7314088;19;154065;-38
2022/05/15 07:41:21;;;;;;;30.83;4.33;;;;;;;24.56;47.47;100010.50;7314184;19;158894;-41
2022/05/15 07:43:46;;;;;;;29.33;3.87;;;;;;;24.60;45.65;100011.03;7315091;19;129691;-41
2022/05/15 07:46:12;;;;;;;37.87;5.10;;;;;;;24.63;46.95;100016.00;7310596;19;154570;-39
2022/05/15 07:48:37;;;;;;;53.87;6.40;;;;;;;24.58;46.68;100016.47;7312492;19;130865;-42
2022/05/15 07:51:03;;;;;;;29.07;4.33;;;;;;;24.55;47.21;100008.88;7316129;19;130736;-39
2022/05/15 07:53:29;;;;;;;34.67;4.40;;;;;;;24.58;45.77;100019.09;7313247;19;129950;-39
2022/05/15 07:55:55;;;;;;;24.17;3.58;;;;;;;24.66;45.25;100015.72;7313084;19;130358;-39
2022/05/15 07:58:20;;;;;;;50.53;6.00;;;;;;;24.61;45.93;100013.53;7316273;19;129576;-39
2022/05/15 08:00:45;;;;;;;37.55;4.82;;;;;;;24.56;44.96;100007.88;7314993;19;129253;-42
2022/05/15 08:03:12;;;;;;;43.63;5.00;;;;;;;24.52;46.38;100008.34;7313326;19;158398;-39
2022/05/15 08:08:23;;;;;;;33.08;4.68;;;;;;;24.49;45.64;100017.38;7314613;19;130435;-41
2022/05/15 08:10:49;;;;;;;25.20;3.72;;;;;;;24.45;46.75;100022.09;7313952;19;130426;-42
2022/05/15 08:13:25;;;;;;;38.20;4.38;;;;;;;24.49;47.71;100020.00;7312861;19;131056;-41
2022/05/15 08:15:51;;;;;;;23.92;3.45;;;;;;;24.41;45.55;100004.13;7309686;19;130972;-38
2022/05/15 08:23:53;;;;;;;30.92;3.95;;;;;;;24.52;47.28;100009.19;7315933;19;129398;-40
2022/05/15 08:26:19;;;;;;;39.28;4.50;;;;;;;24.53;47.06;100021.34;7311210;19;130024;-39
2022/05/15 08:28:44;;;;;;;21.67;3.03;;;;;;;24.53;46.56;100020.53;7313782;19;128877;-42
2022/05/15 08:31:10;;;;;;;38.97;4.63;;;;;;;24.53;47.25;100021.34;7314833;19;130139;-41
2022/05/15 08:33:37;;;;;;;36.83;4.40;;;;;;;24.46;47.73;100021.09;7308887;19;129772;-39
2022/05/15 08:36:04;;;;;;;26.80;3.65;;;;;;;24.52;47.42;100016.22;7309367;19;131226;-41
2022/05/15 08:38:31;;;;;;;21.90;2.97;;;;;;;24.43;47.43;99999.53;7313609;19;129497;-40
2022/05/15 08:41:01;;;;;;;26.27;3.35;;;;;;;24.54;47.87;100016.91;7313123;19;129618;-40
2022/05/15 08:43:41;;;;;;;21.10;2.83;;;;;;;24.48;49.63;100019.16;7312510;19;131006;-39
2022/05/15 08:46:20;;;;;;;26.27;3.28;;;;;;;24.51;49.23;100014.59;7310241;19;129446;-39
2022/05/15 08:48:46;;;;;;;25.63;3.58;;;;;;;24.53;47.80;100020.53;7313559;19;128907;-38
2022/05/15 08:51:13;;;;;;;49.53;5.33;;;;;;;24.53;48.47;100007.38;7312087;19;129426;-41
2022/05/15 08:53:42;;;;;;;35.65;4.30;;;;;;;24.51;48.56;100014.59;7311569;19;129493;-40
2022/05/15 08:56:12;;;;;;;35.03;4.00;;;;;;;24.54;48.38;100016.91;7309938;19;132999;-39
2022/05/15 08:58:48;;;;;;;17.92;2.65;;;;;;;24.49;49.77;100015.53;7313685;19;128857;-40
2022/05/15 09:01:18;;;;;;;31.58;4.15;;;;;;;24.57;48.37;100006.94;7313415;19;129147;-40
2022/05/15 09:03:43;;;;;;;33.38;3.85;;;;;;;24.60;47.00;100016.31;7312729;19;129464;-38
2022/05/15 09:06:37;;;;;;;36.33;4.00;;;;;;;24.53;49.50;100002.13;7310782;19;128948;-39
2022/05/15 09:09:07;;;;;;;36.63;4.47;;;;;;;24.52;48.54;100009.19;7312231;19;129197;-38
2022/05/15 09:11:47;;;;;;;38.03;4.35;;;;;;;24.61;49.41;100002.19;7313876;19;139110;-39
2022/05/15 09:14:38;;;;;;;48.67;5.20;;;;;;;24.76;49.55;100011.25;7312601;19;130901;-39
2022/05/15 09:17:14;;;;;;;16.88;2.63;;;;;;;24.78;49.45;100002.22;7310091;19;130177;-40
2022/05/15 09:19:39;;;;;;;44.63;5.00;;;;;;;24.79;47.37;100003.06;7309874;19;154731;-40
2022/05/15 09:22:05;;;;;;;33.40;3.97;;;;;;;24.74;47.37;100002.69;7311484;19;158472;-39
2022/05/15 09:24:53;;;;;;;29.13;3.63;;;;;;;24.60;48.94;99990.00;7313031;19;130287;-39
2022/05/15 09:27:22;;;;;;;38.50;3.90;;;;;;;24.67;48.42;100001.59;7312511;19;129172;-39
2022/05/15 09:29:59;;;;;;;32.97;3.35;;;;;;;24.59;49.43;99988.38;7310167;19;130717;-40
2022/05/15 09:32:29;;;;;;;9.43;1.88;;;;;;;24.64;48.45;99992.22;7313140;19;130474;-40
2022/05/15 09:34:57;;;;;;;34.28;3.78;;;;;;;24.65;48.16;99999.13;7309457;19;130030;-39
2022/05/15 09:40:24;;;;;;;43.53;4.03;;;;;;;24.64;49.04;99996.63;7313251;19;129137;-40
2022/05/15 09:45:36;;;;;;;45.80;5.38;;;;;;;24.61;48.41;100003.00;7309583;19;130012;-38
2022/05/15 09:48:04;;;;;;;11.03;2.17;;;;;;;24.63;49.28;99995.81;7311962;19;129003;-38
2022/05/15 09:50:41;;;;;;;37.90;4.47;;;;;;;24.62;51.00;100002.06;7310239;19;129073;-40
2022/05/15 09:53:09;;;;;;;42.75;4.50;;;;;;;24.70;48.99;99998.69;7310421;19;129625;-38
2022/05/15 09:55:34;;;;;;;32.10;4.00;;;;;;;24.68;49.13;99998.84;7311125;19;130612;-41
2022/05/15 09:58:03;;;;;;;32.53;4.17;;;;;;;24.68;49.37;99998.00;7308608;19;154845;-40
2022/05/15 10:00:33;;;;;;;12.98;2.25;;;;;;;24.65;49.80;99987.75;7310140;19;128981;-39
2022/05/15 10:03:16;;;;;;;31.10;3.63;;;;;;;24.67;49.93;99985.81;7310937;19;130084;-40
2022/05/15 10:05:41;;;;;;;33.30;3.58;;;;;;;24.77;48.71;99984.81;7309815;19;129246;-40
2022/05/15 10:08:26;;;;;;;47.80;5.53;;;;;;;24.77;50.97;99989.22;7310680;19;128963;-39
2022/05/15 10:11:15;;;;;;;20.42;2.50;;;;;;;24.77;50.00;99990.06;7311058;19;129138;-38
2022/05/15 10:13:45;;;;;;;41.20;4.18;;;;;;;24.75;48.68;99983.28;7310874;19;133741;-41
2022/05/15 10:16:20;;;;;;;51.15;5.05;;;;;;;24.70;49.41;99981.13;7306036;19;130351;-39
2022/05/15 10:19:04;;;;;;;25.50;3.35;;;;;;;24.71;49.86;99980.13;7309323;19;129424;-39
2022/05/15 10:21:40;;;;;;;24.60;2.80;;;;;;;24.71;49.91;99968.81;7313495;19;129333;-41
2022/05/15 10:24:10;;;;;;;22.40;3.20;;;;;;;24.77;48.23;99982.19;7311126;19;130126;-37
2022/05/15 10:26:55;;;;;;;43.75;4.57;;;;;;;24.66;50.42;99979.72;7306512;19;130917;-39
2022/05/15 10:29:55;;;;;;;33.00;3.78;;;;;;;24.72;49.79;99975.72;7311189;19;129333;-41
2022/05/15 10:32:28;;;;;;;33.33;4.00;;;;;;;24.71;49.28;99972.25;7310408;19;128897;-40
2022/05/15 10:34:55;;;;;;;32.50;4.07;;;;;;;24.70;49.02;99970.59;7310548;19;129502;-39
2022/05/15 10:37:39;;;;;;;29.42;3.38;;;;;;;24.65;50.12;99972.00;7309321;19;129606;-41
2022/05/15 10:40:31;;;;;;;28.13;3.15;;;;;;;24.70;49.36;99975.03;7312037;19;130951;-36
2022/05/15 10:43:07;;;;;;;22.52;2.75;;;;;;;24.66;49.57;99961.31;7311319;19;129401;-39
2022/05/15 10:45:41;;;;;;;45.70;4.88;;;;;;;24.67;48.91;99956.91;7308826;19;129883;-39
2022/05/15 10:48:32;;;;;;;31.92;3.83;;;;;;;24.67;50.76;99952.47;7310225;19;129221;-39
2022/05/15 10:51:12;;;;;;;27.20;3.20;;;;;;;24.75;49.13;99957.00;7307443;19;129396;-36
2022/05/15 10:59:57;;;;;;;36.70;4.28;;;;;;;24.84;50.23;99946.38;7309586;19;130496;-40
2022/05/15 11:02:35;;;;;;;22.77;2.90;;;;;;;24.72;49.71;99928.38;7310885;19;129141;-40
2022/05/15 11:05:03;;;;;;;40.25;4.50;;;;;;;24.80;48.98;99937.16;7307748;19;129194;-39
2022/05/15 11:07:37;;;;;;;28.98;3.85;;;;;;;24.72;49.24;99939.72;7308733;19;130452;-41
2022/05/15 11:10:11;;;;;;;45.63;5.18;;;;;;;24.79;48.80;99939.94;7309381;19;129240;-40
2022/05/15 11:12:59;;;;;;;33.40;4.40;;;;;;;24.76;50.92;99932.38;7307475;19;129154;-40
2022/05/15 11:15:53;;;;;;;53.75;5.55;;;;;;;24.77;50.41;99932.22;7315826;19;129644;-37
2022/05/15 11:18:24;;;;;;;30.60;3.83;;;;;;;24.79;49.25;99932.06;7315927;19;131075;-38
2022/05/15 11:20:55;;;;;;;42.95;4.32;;;;;;;24.79;47.08;99934.69;7315096;19;158582;-39
2022/05/15 11:23:28;;;;;;;27.92;3.50;;;;;;;24.75;47.76;99928.06;7312460;19;129086;-41
2022/05/15 11:26:02;;;;;;;30.88;3.83;;;;;;;24.77;48.73;99934.00;7315241;19;129529;-39
2022/05/15 11:28:43;;;;;;;24.88;3.33;;;;;;;24.77;49.49;99918.22;7317341;19;129699;-41
2022/05/15 11:31:20;;;;;;;30.75;4.22;;;;;;;24.79;47.37;99922.34;7317118;19;130417;-42
2022/05/15 11:33:54;;;;;;;45.28;4.90;;;;;;;24.76;48.44;99916.59;7315735;19;129621;-37
2022/05/15 11:36:22;;;;;;;20.58;2.65;;;;;;;24.77;47.83;99920.88;7314083;19;129754;-39
2022/05/15 11:38:59;;;;;;;36.05;3.72;;;;;;;24.78;48.61;99914.59;7315330;19;158422;-41
2022/05/15 11:41:33;;;;;;;36.65;4.13;;;;;;;24.79;48.33;99900.50;7315522;19;130232;-40
2022/05/15 11:44:05;;;;;;;49.33;5.15;;;;;;;24.76;46.86;99906.06;7314547;19;129557;-39
2022/05/15 11:46:45;;;;;;;24.75;3.08;;;;;;;24.78;49.31;99914.59;7313330;19;131141;-39